createdAt,value
2019-05-06T00:00:58.916Z,7.60
2019-05-06T00:03:24.827Z,7.60
2019-05-06T00:05:54.360Z,7.60
2019-05-06T00:08:23.766Z,7.50
2019-05-06T00:10:54.282Z,7.40
2019-05-06T00:13:24.193Z,7.30
2019-05-06T00:15:54.347Z,7.20
2019-05-06T00:18:24.536Z,7.20
2019-05-06T00:20:57.191Z,7.10
2019-05-06T00:23:29.080Z,7.10
2019-05-06T00:26:16.438Z,7.10
2019-05-06T00:28:48.714Z,6.90
2019-05-06T00:31:19.221Z,6.70
2019-05-06T00:33:48.195Z,6.50
2019-05-06T00:36:17.054Z,6.40
2019-05-06T00:38:48.490Z,6.50
2019-05-06T00:41:24.687Z,6.40
2019-05-06T00:43:54.674Z,6.50
2019-05-06T00:46:24.292Z,6.40
2019-05-06T00:48:54.257Z,6.40
2019-05-06T00:51:24.143Z,6.50
2019-05-06T00:53:59.090Z,6.40
2019-05-06T00:56:27.951Z,6.30
2019-05-06T00:58:56.740Z,6.30
2019-05-06T01:01:29.469Z,6.10
2019-05-06T01:03:56.246Z,6.10
2019-05-06T01:06:25.192Z,6.10
2019-05-06T01:08:54.494Z,6.10
2019-05-06T01:11:24.006Z,6.00
2019-05-06T01:13:55.219Z,6.00
2019-05-06T01:16:24.990Z,5.90
2019-05-06T01:18:54.224Z,5.90
2019-05-06T01:21:23.788Z,5.90
2019-05-06T01:23:54.528Z,6.00
2019-05-06T01:26:24.288Z,5.90
2019-05-06T01:28:54.607Z,5.80
2019-05-06T01:31:25.991Z,5.70
2019-05-06T01:33:54.644Z,5.80
2019-05-06T01:36:24.926Z,5.80
2019-05-06T01:39:16.201Z,5.90
2019-05-06T01:42:13.879Z,5.90
2019-05-06T01:44:44.327Z,6.00
2019-05-06T01:47:14.550Z,5.90
2019-05-06T01:49:44.193Z,5.80
2019-05-06T01:52:14.693Z,5.80
2019-05-06T01:54:43.573Z,5.70
2019-05-06T01:57:13.720Z,5.70
2019-05-06T01:59:44.362Z,5.60
2019-05-06T02:02:14.297Z,5.60
2019-05-06T02:04:44.345Z,5.50
2019-05-06T02:07:14.435Z,5.50
2019-05-06T02:09:44.746Z,5.50
2019-05-06T02:12:13.913Z,5.40
2019-05-06T02:14:43.652Z,5.40
2019-05-06T02:17:14.433Z,5.30
2019-05-06T02:19:43.783Z,5.20
2019-05-06T02:22:34.736Z,5.10
2019-05-06T02:25:13.915Z,4.90
2019-05-06T02:27:44.505Z,4.80
2019-05-06T02:30:21.062Z,4.90
2019-05-06T02:32:58.508Z,4.80
2019-05-06T02:35:37.868Z,4.80
2019-05-06T02:38:26.225Z,4.80
2019-05-06T02:40:53.659Z,4.60
2019-05-06T02:43:23.312Z,4.40
2019-05-06T02:45:53.089Z,4.30
2019-05-06T02:48:54.486Z,4.20
2019-05-06T02:51:26.312Z,4.00
2019-05-06T02:53:55.150Z,3.90
2019-05-06T02:56:24.213Z,3.80
2019-05-06T02:58:53.797Z,3.70
2019-05-06T03:01:23.442Z,3.60
2019-05-06T03:03:53.678Z,3.60
2019-05-06T03:06:23.815Z,3.50
2019-05-06T03:08:54.118Z,3.60
2019-05-06T03:11:25.094Z,3.60
2019-05-06T03:13:54.049Z,3.60
2019-05-06T03:16:23.850Z,3.70
2019-05-06T03:18:53.489Z,3.70
2019-05-06T03:21:40.357Z,3.60
2019-05-06T03:24:27.226Z,3.50
2019-05-06T03:26:57.235Z,3.40
2019-05-06T03:29:26.156Z,3.60
2019-05-06T03:31:56.365Z,3.40
2019-05-06T03:34:48.849Z,3.40
2019-05-06T03:36:57.023Z,3.50
2019-05-06T03:39:26.262Z,3.50
2019-05-06T03:41:55.169Z,3.50
2019-05-06T03:44:24.187Z,3.40
2019-05-06T03:47:16.165Z,3.40
2019-05-06T03:49:49.981Z,3.30
2019-05-06T03:52:17.752Z,3.30
2019-05-06T03:54:47.024Z,3.30
2019-05-06T03:57:17.452Z,3.20
2019-05-06T03:59:48.656Z,3.20
2019-05-06T04:02:18.348Z,3.30
2019-05-06T04:04:55.701Z,3.30
2019-05-06T04:07:23.458Z,3.30
2019-05-06T04:09:53.641Z,3.20
2019-05-06T04:12:24.694Z,3.20
2019-05-06T04:14:54.414Z,3.30
2019-05-06T04:17:43.823Z,3.20
2019-05-06T04:20:38.178Z,3.20
2019-05-06T04:23:26.231Z,3.20
2019-05-06T04:26:05.734Z,3.10
2019-05-06T04:28:35.733Z,3.10
2019-05-06T04:31:05.937Z,3.20
2019-05-06T04:33:35.182Z,3.10
2019-05-06T04:36:04.445Z,3.10
2019-05-06T04:38:33.959Z,3.20
2019-05-06T04:41:03.298Z,3.40
2019-05-06T04:43:33.698Z,3.40
2019-05-06T04:46:03.348Z,3.60
2019-05-06T04:48:33.052Z,3.60
2019-05-06T04:51:03.430Z,3.60
2019-05-06T04:53:33.869Z,3.60
2019-05-06T04:56:04.097Z,3.60
2019-05-06T04:58:33.828Z,3.70
2019-05-06T05:01:04.077Z,3.70
2019-05-06T05:03:33.712Z,3.80
2019-05-06T05:06:05.597Z,3.80
2019-05-06T05:08:37.086Z,3.90
2019-05-06T05:11:22.659Z,3.90
2019-05-06T05:14:05.504Z,3.90
2019-05-06T05:16:43.759Z,4.00
2019-05-06T05:19:13.036Z,4.10
2019-05-06T05:21:42.900Z,4.30
2019-05-06T05:24:12.788Z,4.30
2019-05-06T05:26:45.112Z,4.30
2019-05-06T05:29:13.174Z,4.40
2019-05-06T05:31:43.692Z,4.40
2019-05-06T05:34:15.279Z,4.50
2019-05-06T05:36:44.320Z,4.50
2019-05-06T05:39:13.275Z,4.50
2019-05-06T05:41:42.997Z,4.60
2019-05-06T05:44:16.844Z,4.70
2019-05-06T05:46:46.146Z,4.80
2019-05-06T05:49:22.544Z,4.80
2019-05-06T05:51:52.047Z,5.00
2019-05-06T05:54:23.131Z,5.10
2019-05-06T05:56:52.891Z,5.30
2019-05-06T05:59:23.232Z,5.60
2019-05-06T06:01:53.134Z,5.80
2019-05-06T06:04:22.942Z,5.90
2019-05-06T06:06:52.114Z,6.20
2019-05-06T06:09:23.393Z,6.30
2019-05-06T06:11:54.002Z,6.40
2019-05-06T06:14:48.065Z,6.30
2019-05-06T06:17:32.537Z,6.50
2019-05-06T06:20:04.546Z,6.70
2019-05-06T06:22:33.776Z,6.80
2019-05-06T06:25:04.095Z,6.80
2019-05-06T06:27:48.343Z,6.80
2019-05-06T06:30:19.388Z,6.90
2019-05-06T06:32:48.258Z,7.00
2019-05-06T06:35:28.817Z,7.10
2019-05-06T06:38:16.945Z,7.10
2019-05-06T06:40:46.013Z,7.20
2019-05-06T06:43:19.297Z,7.40
2019-05-06T06:45:48.260Z,7.50
2019-05-06T06:48:17.218Z,7.50
2019-05-06T06:50:46.254Z,7.50
2019-05-06T06:53:15.397Z,7.70
2019-05-06T06:55:44.261Z,7.80
2019-05-06T06:58:33.307Z,8.00
2019-05-06T07:01:20.141Z,8.20
2019-05-06T07:03:58.208Z,8.40
2019-05-06T07:06:36.379Z,8.50
2019-05-06T07:09:06.265Z,8.60
2019-05-06T07:11:37.993Z,8.90
2019-05-06T07:14:06.905Z,9.10
2019-05-06T07:16:35.972Z,9.10
2019-05-06T07:19:04.775Z,9.20
2019-05-06T07:21:43.564Z,9.30
2019-05-06T07:24:13.101Z,9.20
2019-05-06T07:26:49.412Z,9.30
2019-05-06T07:29:23.505Z,9.40
2019-05-06T07:31:48.829Z,9.40
2019-05-06T07:34:17.790Z,9.40
2019-05-06T07:36:46.705Z,9.30
2019-05-06T07:39:15.840Z,9.30
2019-05-06T07:41:53.513Z,9.30
2019-05-06T07:44:47.547Z,9.40
2019-05-06T07:47:35.508Z,9.40
2019-05-06T07:50:05.126Z,9.40
2019-05-06T07:52:33.982Z,9.30
2019-05-06T07:55:02.992Z,9.20
2019-05-06T07:57:33.011Z,9.30
2019-05-06T08:00:03.366Z,9.30
2019-05-06T08:02:32.577Z,9.60
2019-05-06T08:05:02.652Z,9.60
2019-05-06T08:07:34.049Z,9.80
2019-05-06T08:10:03.049Z,9.80
2019-05-06T08:12:32.652Z,9.70
2019-05-06T08:15:05.384Z,10.10
2019-05-06T08:17:42.143Z,10.10
2019-05-06T08:20:12.944Z,10.20
2019-05-06T08:23:06.609Z,10.40
2019-05-06T08:25:42.548Z,10.50
2019-05-06T08:28:13.305Z,10.40
2019-05-06T08:30:43.137Z,10.30
2019-05-06T08:33:12.855Z,10.40
2019-05-06T08:35:42.695Z,10.40
2019-05-06T08:38:12.665Z,10.70
2019-05-06T08:40:43.039Z,11.00
2019-05-06T08:43:13.095Z,10.50
2019-05-06T08:45:42.263Z,10.60
2019-05-06T08:48:13.042Z,10.70
2019-05-06T08:51:02.838Z,10.50
2019-05-06T08:53:42.468Z,10.20
2019-05-06T08:56:16.390Z,10.10
2019-05-06T08:58:45.638Z,10.20
2019-05-06T09:01:24.800Z,10.10
2019-05-06T09:04:06.423Z,9.90
2019-05-06T09:06:29.941Z,9.80
2019-05-06T09:08:56.819Z,9.80
2019-05-06T09:11:25.905Z,9.80
2019-05-06T09:13:54.935Z,9.70
2019-05-06T09:16:23.825Z,9.70
2019-05-06T09:18:53.436Z,9.50
2019-05-06T09:21:22.788Z,9.40
2019-05-06T09:23:53.068Z,9.50
2019-05-06T09:26:26.612Z,9.50
2019-05-06T09:29:02.410Z,9.50
2019-05-06T09:31:40.008Z,9.40
2019-05-06T09:34:24.564Z,9.40
2019-05-06T09:37:13.363Z,9.30
2019-05-06T09:39:43.404Z,9.60
2019-05-06T09:42:12.936Z,9.90
2019-05-06T09:44:42.920Z,10.10
2019-05-06T09:47:17.838Z,10.50
2019-05-06T09:49:47.629Z,10.60
2019-05-06T09:52:16.526Z,10.30
2019-05-06T09:54:57.053Z,10.80
2019-05-06T09:57:29.080Z,11.30
2019-05-06T09:59:58.089Z,10.80
2019-05-06T10:02:27.043Z,11.10
2019-05-06T10:04:55.974Z,11.60
2019-05-06T10:07:24.923Z,11.80
2019-05-06T10:09:53.940Z,11.40
2019-05-06T10:12:22.750Z,11.10
2019-05-06T10:14:53.185Z,11.00
2019-05-06T10:17:22.346Z,11.00
2019-05-06T10:19:51.306Z,10.90
2019-05-06T10:22:20.201Z,10.70
2019-05-06T10:24:49.120Z,11.00
2019-05-06T10:27:18.020Z,11.10
2019-05-06T10:30:03.425Z,11.50
2019-05-06T10:32:52.884Z,11.70
2019-05-06T10:35:23.109Z,11.50
2019-05-06T10:38:22.785Z,12.00
2019-05-06T10:41:03.597Z,12.20
2019-05-06T10:43:54.728Z,12.30
2019-05-06T10:46:23.753Z,12.80
2019-05-06T10:48:53.149Z,12.90
2019-05-06T10:51:27.700Z,12.70
2019-05-06T10:53:56.509Z,12.70
2019-05-06T10:56:53.773Z,12.40
2019-05-06T10:59:16.257Z,12.60
2019-05-06T11:01:46.305Z,12.60
2019-05-06T11:04:15.254Z,12.60
2019-05-06T11:06:44.875Z,12.50
2019-05-06T11:09:13.777Z,12.30
2019-05-06T11:11:44.587Z,12.40
2019-05-06T11:14:13.233Z,12.20
2019-05-06T11:16:42.179Z,12.20
2019-05-06T11:19:13.319Z,12.20
2019-05-06T11:21:45.122Z,12.10
2019-05-06T11:24:12.618Z,11.80
2019-05-06T11:26:43.016Z,11.80
2019-05-06T11:29:17.895Z,11.70
2019-05-06T11:31:57.147Z,11.50
2019-05-06T11:34:44.348Z,11.20
2019-05-06T11:37:47.173Z,11.30
2019-05-06T11:40:09.419Z,11.50
2019-05-06T11:42:38.341Z,11.50
2019-05-06T11:45:08.276Z,11.50
2019-05-06T11:47:37.281Z,11.50
2019-05-06T11:50:08.129Z,11.30
2019-05-06T11:52:37.090Z,11.60
2019-05-06T11:55:06.690Z,11.60
2019-05-06T11:57:37.745Z,11.60
2019-05-06T12:00:07.926Z,11.60
2019-05-06T12:02:36.857Z,11.80
2019-05-06T12:05:06.034Z,11.80
2019-05-06T12:07:35.067Z,11.50
2019-05-06T12:10:04.447Z,11.90
2019-05-06T12:12:33.535Z,12.00
2019-05-06T12:15:03.505Z,12.00
2019-05-06T12:17:33.238Z,12.30
2019-05-06T12:20:02.984Z,12.30
2019-05-06T12:22:37.908Z,12.70
2019-05-06T12:25:14.461Z,12.20
2019-05-06T12:27:47.130Z,12.60
2019-05-06T12:30:23.202Z,12.40
2019-05-06T12:33:13.046Z,12.40
2019-05-06T12:35:47.834Z,12.40
2019-05-06T12:38:30.262Z,11.80
2019-05-06T12:40:53.370Z,11.80
2019-05-06T12:43:43.160Z,11.70
2019-05-06T12:46:17.540Z,12.10
2019-05-06T12:48:46.405Z,12.10
2019-05-06T12:51:15.389Z,12.80
2019-05-06T12:53:44.369Z,12.90
2019-05-06T12:56:13.297Z,12.90
2019-05-06T12:58:44.255Z,13.10
2019-05-06T13:01:13.848Z,13.80
2019-05-06T13:03:43.382Z,13.30
2019-05-06T13:06:13.000Z,13.30
2019-05-06T13:08:56.763Z,12.80
2019-05-06T13:11:13.600Z,13.10
2019-05-06T13:13:56.425Z,13.30
2019-05-06T13:16:13.257Z,13.40
2019-05-06T13:18:47.346Z,13.50
2019-05-06T13:21:15.022Z,13.70
2019-05-06T13:23:47.992Z,13.90
2019-05-06T13:26:16.913Z,13.30
2019-05-06T13:28:50.322Z,13.60
2019-05-06T13:31:21.585Z,13.40
2019-05-06T13:33:54.561Z,13.30
2019-05-06T13:36:23.825Z,13.00
2019-05-06T13:39:09.508Z,13.20
2019-05-06T13:41:26.754Z,13.40
2019-05-06T13:44:13.111Z,13.40
2019-05-06T13:46:46.878Z,12.80
2019-05-06T13:49:47.256Z,12.60
2019-05-06T13:52:19.994Z,12.60
2019-05-06T13:54:49.274Z,13.10
2019-05-06T13:57:18.330Z,13.00
2019-05-06T13:59:47.569Z,12.90
2019-05-06T14:02:34.033Z,12.50
2019-05-06T14:05:03.059Z,12.80
2019-05-06T14:07:34.424Z,12.90
2019-05-06T14:10:02.981Z,12.90
2019-05-06T14:12:33.165Z,12.80
2019-05-06T14:15:04.337Z,12.90
2019-05-06T14:17:33.219Z,13.00
2019-05-06T14:20:02.768Z,13.10
2019-05-06T14:22:32.629Z,13.10
2019-05-06T14:25:19.912Z,13.40
2019-05-06T14:27:52.685Z,13.20
2019-05-06T14:30:39.798Z,13.40
2019-05-06T14:33:09.241Z,13.40
2019-05-06T14:35:38.302Z,13.10
2019-05-06T14:38:07.335Z,13.40
2019-05-06T14:40:55.374Z,13.40
2019-05-06T14:43:24.453Z,13.30
2019-05-06T14:45:53.362Z,13.50
2019-05-06T14:48:22.526Z,13.60
2019-05-06T14:50:56.809Z,13.30
2019-05-06T14:53:23.956Z,12.60
2019-05-06T14:55:54.444Z,12.80
2019-05-06T14:58:23.342Z,12.90
2019-05-06T15:00:53.359Z,13.10
2019-05-06T15:03:22.640Z,13.40
2019-05-06T15:05:51.714Z,13.70
2019-05-06T15:08:22.485Z,13.80
2019-05-06T15:10:51.300Z,14.10
2019-05-06T15:13:22.742Z,13.80
2019-05-06T15:15:52.216Z,13.60
2019-05-06T15:18:22.435Z,13.70
2019-05-06T15:20:53.135Z,13.70
2019-05-06T15:23:22.476Z,13.70
2019-05-06T15:25:52.417Z,13.70
2019-05-06T15:28:22.589Z,13.60
2019-05-06T15:31:03.266Z,13.30
2019-05-06T15:33:36.453Z,13.20
2019-05-06T15:36:32.685Z,13.20
2019-05-06T15:39:02.397Z,13.20
2019-05-06T15:41:32.327Z,12.90
2019-05-06T15:44:02.970Z,13.00
2019-05-06T15:46:32.279Z,13.00
2019-05-06T15:49:02.982Z,13.00
2019-05-06T15:51:35.140Z,12.60
2019-05-06T15:54:05.330Z,12.70
2019-05-06T15:56:34.669Z,12.90
2019-05-06T15:59:04.270Z,12.80
2019-05-06T16:01:34.147Z,12.60
2019-05-06T16:04:03.586Z,12.60
2019-05-06T16:06:33.244Z,12.50
2019-05-06T16:09:03.632Z,12.40
2019-05-06T16:11:33.315Z,12.30
2019-05-06T16:14:03.073Z,12.50
2019-05-06T16:16:33.230Z,12.30
2019-05-06T16:19:04.086Z,12.40
2019-05-06T16:21:33.683Z,12.20
2019-05-06T16:24:17.633Z,12.10
2019-05-06T16:26:46.469Z,12.20
2019-05-06T16:29:15.293Z,12.10
2019-05-06T16:31:44.138Z,12.20
2019-05-06T16:34:14.645Z,12.20
2019-05-06T16:36:44.025Z,11.90
2019-05-06T16:39:12.910Z,12.80
2019-05-06T16:41:42.673Z,13.30
2019-05-06T16:44:12.861Z,13.20
2019-05-06T16:46:42.665Z,13.20
2019-05-06T16:49:14.177Z,13.50
2019-05-06T16:51:44.172Z,14.20
2019-05-06T16:54:13.238Z,14.70
2019-05-06T16:56:49.836Z,14.50
2019-05-06T16:59:18.827Z,14.30
2019-05-06T17:01:47.863Z,13.80
2019-05-06T17:04:24.750Z,13.40
2019-05-06T17:06:53.808Z,13.00
2019-05-06T17:09:27.164Z,13.60
2019-05-06T17:11:53.542Z,14.20
2019-05-06T17:14:22.804Z,14.80
2019-05-06T17:16:52.671Z,14.70
2019-05-06T17:19:23.003Z,14.30
2019-05-06T17:21:52.459Z,14.00
2019-05-06T17:24:21.985Z,13.60
2019-05-06T17:26:55.706Z,13.10
2019-05-06T17:29:59.757Z,12.70
2019-05-06T17:32:33.268Z,12.60
2019-05-06T17:35:02.836Z,12.10
2019-05-06T17:37:54.076Z,12.10
2019-05-06T17:40:23.475Z,12.00
2019-05-06T17:42:53.258Z,11.90
2019-05-06T17:46:01.189Z,11.80
2019-05-06T17:48:28.101Z,11.70
2019-05-06T17:51:17.615Z,11.60
2019-05-06T17:53:52.075Z,11.40
2019-05-06T17:56:22.289Z,11.30
2019-05-06T17:58:52.941Z,11.20
2019-05-06T18:01:26.794Z,11.30
2019-05-06T18:03:55.704Z,11.20
2019-05-06T18:06:24.613Z,11.10
2019-05-06T18:08:53.527Z,11.10
2019-05-06T18:11:22.504Z,11.10
2019-05-06T18:13:52.112Z,10.90
2019-05-06T18:16:22.263Z,10.80
2019-05-06T18:18:52.290Z,10.80
2019-05-06T18:21:23.043Z,10.90
2019-05-06T18:23:52.374Z,10.70
2019-05-06T18:26:22.986Z,10.50
2019-05-06T18:28:52.771Z,10.50
2019-05-06T18:31:22.201Z,10.50
2019-05-06T18:33:52.794Z,10.40
2019-05-06T18:36:22.724Z,10.30
2019-05-06T18:38:52.550Z,10.20
2019-05-06T18:41:23.572Z,10.20
2019-05-06T18:43:53.555Z,10.20
2019-05-06T18:46:22.741Z,10.20
2019-05-06T18:48:52.484Z,10.10
2019-05-06T18:51:22.342Z,10.00
2019-05-06T18:53:52.421Z,9.80
2019-05-06T18:56:22.422Z,9.70
2019-05-06T18:58:53.000Z,9.70
2019-05-06T19:01:23.183Z,9.60
2019-05-06T19:03:59.261Z,9.60
2019-05-06T19:06:28.106Z,9.60
2019-05-06T19:09:18.423Z,9.70
2019-05-06T19:11:47.382Z,9.70
2019-05-06T19:14:16.225Z,9.70
2019-05-06T19:16:51.463Z,9.60
2019-05-06T19:19:15.859Z,9.50
2019-05-06T19:21:44.985Z,9.60
2019-05-06T19:24:13.914Z,9.60
2019-05-06T19:26:43.107Z,9.50
2019-05-06T19:29:12.645Z,9.50
2019-05-06T19:31:44.758Z,9.50
2019-05-06T19:34:12.892Z,9.70
2019-05-06T19:36:42.327Z,9.80
2019-05-06T19:39:12.680Z,9.90
2019-05-06T19:41:47.957Z,9.90
2019-05-06T19:44:16.904Z,9.80
2019-05-06T19:46:46.038Z,9.70
2019-05-06T19:49:15.068Z,9.60
2019-05-06T19:51:44.061Z,9.50
2019-05-06T19:54:12.952Z,9.40
2019-05-06T19:56:42.382Z,9.40
2019-05-06T19:59:12.953Z,9.40
2019-05-06T20:01:42.935Z,9.30
2019-05-06T20:04:15.363Z,9.30
2019-05-06T20:07:02.974Z,9.20
2019-05-06T20:09:42.745Z,9.00
2019-05-06T20:12:17.875Z,9.00
2019-05-06T20:14:46.871Z,9.10
2019-05-06T20:17:15.716Z,9.10
2019-05-06T20:19:44.566Z,9.10
2019-05-06T20:22:13.620Z,9.00
2019-05-06T20:24:42.655Z,8.90
2019-05-06T20:27:13.259Z,8.70
2019-05-06T20:29:42.775Z,8.70
2019-05-06T20:32:12.210Z,8.60
2019-05-06T20:34:42.890Z,8.50
2019-05-06T20:37:12.887Z,8.50
2019-05-06T20:39:43.374Z,8.50
2019-05-06T20:42:12.854Z,8.50
2019-05-06T20:44:43.398Z,8.40
2019-05-06T20:47:15.414Z,8.40
2019-05-06T20:49:44.341Z,8.40
2019-05-06T20:52:13.276Z,8.40
2019-05-06T20:54:42.781Z,8.40
2019-05-06T20:57:12.381Z,8.30
2019-05-06T20:59:42.068Z,8.10
2019-05-06T21:02:12.412Z,7.90
2019-05-06T21:04:43.150Z,7.70
2019-05-06T21:07:12.515Z,7.50
2019-05-06T21:09:43.140Z,7.40
2019-05-06T21:12:12.307Z,7.30
2019-05-06T21:14:42.135Z,7.20
2019-05-06T21:17:12.329Z,7.00
2019-05-06T21:19:41.521Z,7.00
2019-05-06T21:22:10.392Z,6.90
2019-05-06T21:24:39.377Z,6.80
2019-05-06T21:27:08.325Z,6.80
2019-05-06T21:29:37.339Z,6.80
2019-05-06T21:32:06.321Z,6.80
2019-05-06T21:34:35.497Z,6.70
2019-05-06T21:37:07.174Z,6.60
2019-05-06T21:39:36.270Z,6.60
2019-05-06T21:42:05.428Z,6.50
2019-05-06T21:44:34.478Z,6.50
2019-05-06T21:47:03.507Z,6.50
2019-05-06T21:49:32.853Z,6.50
2019-05-06T21:52:02.394Z,6.50
2019-05-06T21:54:32.758Z,6.40
2019-05-06T21:57:02.915Z,6.30
2019-05-06T21:59:32.190Z,6.30
2019-05-06T22:02:01.682Z,6.10
2019-05-06T22:04:32.729Z,6.10
2019-05-06T22:07:03.031Z,6.10
2019-05-06T22:09:32.284Z,6.10
2019-05-06T22:12:02.410Z,6.00
2019-05-06T22:14:32.564Z,6.00
2019-05-06T22:17:03.853Z,6.00
2019-05-06T22:19:32.314Z,6.00
2019-05-06T22:22:06.425Z,5.90
2019-05-06T22:24:45.806Z,5.90
2019-05-06T22:27:15.139Z,5.90
2019-05-06T22:29:44.119Z,5.90
2019-05-06T22:32:14.896Z,5.90
2019-05-06T22:34:43.830Z,6.00
2019-05-06T22:37:12.907Z,6.10
2019-05-06T22:39:43.522Z,6.00
2019-05-06T22:42:12.631Z,6.10
2019-05-06T22:44:42.900Z,6.10
2019-05-06T22:47:12.319Z,6.10
2019-05-06T22:49:41.278Z,6.10
2019-05-06T22:52:12.449Z,6.20
2019-05-06T22:54:43.163Z,6.20
2019-05-06T22:57:12.102Z,6.40
2019-05-06T22:59:42.686Z,6.40
2019-05-06T23:02:36.481Z,6.40
2019-05-06T23:05:06.510Z,6.40
2019-05-06T23:07:35.441Z,6.40
2019-05-06T23:10:05.457Z,6.40
2019-05-06T23:12:34.374Z,6.30
2019-05-06T23:15:06.270Z,6.30
2019-05-06T23:17:35.182Z,6.20
2019-05-06T23:20:04.671Z,6.10
2019-05-06T23:22:33.554Z,6.10
2019-05-06T23:25:03.821Z,6.00
2019-05-06T23:27:32.669Z,5.90
2019-05-06T23:30:03.182Z,5.90
2019-05-06T23:32:32.697Z,5.90
2019-05-06T23:35:03.296Z,5.90
2019-05-06T23:37:30.900Z,6.00
2019-05-06T23:40:39.129Z,6.00
2019-05-06T23:43:44.101Z,6.00
2019-05-06T23:46:49.827Z,6.00
2019-05-06T23:49:55.096Z,6.00
2019-05-06T23:53:02.799Z,6.00
2019-05-06T23:56:07.403Z,6.10
2019-05-06T23:58:36.412Z,6.00
